Airfield :
LOGIN :

Register | Disclaimer

   EN    FR    IT 

 










Legend :    VFR   Marginal VFR   IFR   Intensive IFR   Very Intensive IFR
Visi :
Ceiling :
>= 8 km
>= 3000ft
5 to 8 km
1000 to 3000 ft
1500m to 5 km
500 to 1000 ft
800 to 1500m
200 to 500 ft
< 800m
< 200 ft
Symbols :   Thunderstorms  Fog  Heavy snow  Heavy precipitations  Wind > 20 kt
SIGMETs :     Misc.  Thunderstorms  Icing  Turbulence  Mountain Waves  Volcanic Ashes






- Airport Elevation : 390 ft
- IATA code : NQY


EGHQ - Newquay

CURRENT METAR :
  • 250420Z AUTO 30012KT 1200 +RA VV/// 14/14 Q1020

EXPIRED METARs :
  • 250350Z AUTO 31012KT 1100 RA BKN002/// 14/14 Q1020
  • 250320Z AUTO 30013KT 1100 RA VV/// 14/14 Q1020
  • 250250Z AUTO 29012KT 1200 -RA VV/// 14/14 Q1021
  • 250220Z AUTO 28012KT 0350 -RA VV/// 14/14 Q1021
  • 250150Z AUTO 27011KT 0450 RA VV/// 14/14 Q1021

TAF TAF EGHQ
Valid from the 25 at 03:00 until the 25 at 12:00 UTC


250159Z 2503/2512 28010KT 8000 BKN006
TEMPO 2503/2506 4000 RADZ BR BKN002
PROB40
TEMPO 2503/2505 0300 +RADZ FG VV///
BECMG 2506/2509 34010KT 9999 SCT018



MET'MAP, your aeronautical weather chart ! - Copyright ORBIFLY December 2007 - Disclaimer

ORBIFLY MET'MAP TEAM :

Programming & Development : Alexandra Zaïnal
Concept & original design : Baudouin d'Aumeries
Assistance for programming : Marc-Olivier Méhu
Technical & hardware support : Manuel Goepfert

Contact : metmap@orbifly.com




SOURCES & CREDITS :

   NOAA